Flight Track Log - Related Links

Times and Time Zones

All times are in EDT time to prevent confusion due to time zone crossing. See the AWI9368 flight status page for this flight to view local times or setup timezone preferences in your user account.


Time Position Orientation Groundspeed Altitude Reporting Facility
EDT Latitude Longitude Course Direction KTS MPH feet Rate Location/Type
Thu 07:24:47 PM 37.5456 -77.3258 307° West 165 190 2,900  Level Washington Center
Thu 07:25:48 PM 37.5931 -77.3583 332° Northwest 195 224 3,900 2,281 Climbing Washington Center
Thu 07:26:48 PM 37.6336 -77.4328 305° West 212 244 7,500 2,593 Climbing Washington Center
Thu 07:27:46 PM 37.6761 -77.5097 305° West 246 283 9,000 2,136 Climbing Washington Center
Thu 07:28:46 PM 37.7186 -77.5922 303° West 270 311 11,700 2,727 Climbing Washington Center
Thu 07:29:47 PM 37.7631 -77.6750 304° West 285 328 14,500 1,686 Climbing Washington Center
Thu 07:30:00 PM 37.8428 -77.8880 307° West  Level FlightAware Approximate
Thu 07:30:47 PM 37.8117 -77.7656 304° West 292 336 15,100  Level Washington Center
Thu 07:31:48 PM 37.8619 -77.8617 304° West 311 358 17,000 942 Climbing Washington Center
Thu 07:32:48 PM 37.9142 -77.9633 303° West 324 373 17,000 150 Level Washington Center
Thu 07:33:48 PM 37.9725 -78.0706 305° West 351 404 17,300 1,059 Climbing Washington Center
Thu 07:34:47 PM 38.0375 -78.1492 316° Northwest 330 380 19,100 2,017 Climbing Washington Center
Thu 07:35:47 PM 38.1269 -78.1600 355° North 306 352 21,300 1,916 Climbing Washington Center
Thu 07:36:46 PM 38.2186 -78.1686 356° North 311 358 22,900 1,412 Climbing Washington Center
Thu 07:37:46 PM 38.3167 -78.1719 358° North 328 377 24,100 1,041 Climbing Washington Center
Thu 07:38:47 PM 38.4019 -78.1803 356° North 333 383 25,000 443 Climbing Washington Center
Thu 07:39:48 PM 38.5061 -78.1864 357° North 349 402 25,000 151 Level Washington Center
Thu 07:40:46 PM 38.6142 -78.1956 356° North 375 432 25,300 403 Climbing Washington Center
Thu 07:41:47 PM 38.7289 -78.1997 358° North 387 445 25,800 492 Climbing Washington Center
Thu 07:42:48 PM 38.8392 -78.2061 357° North 393 452 26,300 492 Climbing Washington Center
Thu 07:43:49 PM 38.9556 -78.2183 355° North 406 467 26,800 559 Climbing Washington Center
Thu 07:44:46 PM 39.0681 -78.2303 355° North 406 467 27,400 763 Climbing Washington Center
Thu 07:45:47 PM 39.1803 -78.2425 355° North 406 467 28,300 787 Climbing Washington Center
Thu 07:46:48 PM 39.2906 -78.2519 356° North 406 467 29,000 211 Climbing Washington Center
Thu 07:49:06 PM 39.5683 -78.2794 356° North 418 481 29,000  Level Cleveland Center
Thu 07:50:08 PM 39.6858 -78.2919 355° North 419 482 29,000  Level Cleveland Center
Thu 07:51:10 PM 39.8108 -78.3047 356° North 420 483 29,000  Level Cleveland Center
Thu 07:52:12 PM 39.9272 -78.3164 356° North 420 483 29,000  Level Cleveland Center
Thu 07:53:14 PM 40.0428 -78.3319 354° North 421 484 29,000  Level Cleveland Center
Thu 07:54:16 PM 40.1500 -78.3914 337° Northwest 422 486 29,000  Level Cleveland Center
Thu 07:55:19 PM 40.2789 -78.4583 338° Northwest 419 482 29,000  Level Cleveland Center
Thu 07:56:21 PM 40.3875 -78.5125 339° North 419 482 29,000  Level Cleveland Center
Thu 07:57:23 PM 40.5014 -78.5103 North 425 489 29,000  Level Cleveland Center
Thu 07:58:25 PM 40.6169 -78.4731 14° North 429 494 29,000  Level Cleveland Center
Thu 07:59:27 PM 40.7325 -78.4361 14° North 430 495 29,000  Level Cleveland Center
Thu 08:00:29 PM 40.8675 -78.3936 13° North 431 496 29,000  Level Cleveland Center
Thu 08:01:31 PM 40.9839 -78.3550 14° North 432 497 29,000  Level Cleveland Center
Thu 08:02:33 PM 41.1022 -78.3189 13° North 434 499 29,000  Level Cleveland Center
Thu 08:03:35 PM 41.2189 -78.2814 14° North 434 499 29,000  Level Cleveland Center
Thu 08:04:38 PM 41.3336 -78.2442 14° North 429 494 29,000  Level Cleveland Center
Thu 08:05:39 PM 41.4581 -78.2044 13° North 401 461 29,000  Level Cleveland Center
Thu 08:06:41 PM 41.5611 -78.1714 13° North 390 449 29,000  Level Cleveland Center
Thu 08:07:44 PM 41.6639 -78.1369 14° North 387 445 29,000 -480 Level Cleveland Center
Thu 08:08:46 PM 41.7742 -78.0342 35° Northeast 403 464 28,000 -484 Descending Cleveland Center
Thu 08:09:48 PM 41.8619 -77.9481 36° Northeast 395 455 28,000  Level Cleveland Center
Thu 08:10:50 PM 41.9447 -77.8669 36° Northeast 384 442 28,000  Level Cleveland Center
Thu 08:11:52 PM 42.0306 -77.7842 36° Northeast 384 442 28,000 -194 Level Cleveland Center
Thu 08:12:54 PM 42.1164 -77.6983 37° Northeast 384 442 27,600 -1,248 Descending Cleveland Center
Thu 08:13:57 PM 42.2211 -77.5925 37° Northeast 390 449 25,400 -1,258 Descending Cleveland Center
Thu 08:14:58 PM 42.3061 -77.5072 37° Northeast 386 444 25,000 -194 Descending Cleveland Center
Thu 08:16:01 PM 42.3872 -77.4247 37° Northeast 373 429 25,000  Level Cleveland Center
Thu 08:17:03 PM 42.4697 -77.3411 37° Northeast 373 429 25,000  Level Cleveland Center
Thu 08:18:05 PM 42.5689 -77.2411 37° Northeast 374 430 25,000 -290 Level Cleveland Center
Thu 08:19:07 PM 42.6503 -77.1594 36° Northeast 372 428 24,400 -1,210 Descending Cleveland Center
Thu 08:20:09 PM 42.7244 -77.0833 37° Northeast 342 394 22,500 -1,839 Descending Cleveland Center
Thu 08:21:11 PM 42.7925 -77.0142 37° Northeast 313 360 20,600 -1,839 Descending Cleveland Center
Thu 08:22:13 PM 42.8392 -76.9194 56° Northeast 313 360 18,700 -1,981 Descending Cleveland Center
Thu 08:22:57 PM 42.8703 -76.8350 63° Northeast 313 360 17,100 -2,057 Descending Boston Center
Thu 08:23:58 PM 42.9103 -76.7369 61° Northeast 305 351 15,100 -1,983 Descending Boston Center
Thu 08:24:58 PM 42.9511 -76.6425 59° Northeast 294 338 13,100 -2,083 Descending Boston Center
Thu 08:25:59 PM 42.9908 -76.5506 59° Northeast 287 330 10,900 -2,243 Descending Boston Center
Thu 08:26:45 PM 43.0139 -76.4683 69° East 282 325 9,100 -2,063 Descending Boston Center
Thu 08:27:03 PM 43.0128 -76.4500 95° East 303 349 8,700 -2,276 Descending Boston Center
Thu 08:27:43 PM 43.0128 -76.3628 90° East 282 325 6,900 -2,164 Descending Boston Center
Thu 08:28:04 PM 43.0133 -76.3467 87° East 277 319 6,500 -2,429 Descending Boston Center
Thu 08:28:25 PM 43.0133 -76.2844 90° East 271 312 5,200 -2,066 Descending Boston Center
Thu 08:29:05 PM 43.0131 -76.2447 91° East 274 315 4,400 -1,967 Descending Boston Center
Thu 08:29:26 PM 43.0153 -76.1858 87° East 256 295 3,200 -955 Descending Boston Center
Thu 08:30:33 PM 43.0314 -76.1033 75° East 186 214 3,000 -328 Descending Boston Center
Thu 08:31:34 PM 43.0486 -76.0389 70° East 159 183 2,500 -541 Descending Boston Center
Thu 08:32:35 PM 43.0775 -76.0072 39° Northeast 122 140 1,900 -590 Descending Boston Center
Thu 08:33:36 PM 43.1031 -76.0328 324° Northwest 115 132 1,300 -454 Descending Boston Center
Thu 08:35:40 PM 43.1094 -76.1197 276° West 129 148 500 -387 Descending Cleveland Center

Login

Don't have an account? Register now (free) for customized features, flight alerts, and more!